createdAt,value
2023-05-14T00:00:40.202Z,5.89
2023-05-14T00:01:40.188Z,5.85
2023-05-14T00:02:40.275Z,5.68
2023-05-14T00:03:40.291Z,5.61
2023-05-14T00:04:40.260Z,5.58
2023-05-14T00:05:40.231Z,5.60
2023-05-14T00:06:40.226Z,5.67
2023-05-14T00:07:40.243Z,5.61
2023-05-14T00:08:40.253Z,5.63
2023-05-14T00:09:40.259Z,5.61
2023-05-14T00:10:40.269Z,5.60
2023-05-14T00:11:40.273Z,5.60
2023-05-14T00:12:40.282Z,5.54
2023-05-14T00:13:40.291Z,5.42
2023-05-14T00:14:40.296Z,5.43
2023-05-14T00:15:40.330Z,5.33
2023-05-14T00:16:40.339Z,5.43
2023-05-14T00:17:40.375Z,5.54
2023-05-14T00:18:40.389Z,5.48
2023-05-14T00:19:40.347Z,5.56
2023-05-14T00:20:40.353Z,5.61
2023-05-14T00:21:40.363Z,5.63
2023-05-14T00:22:40.373Z,5.63
2023-05-14T00:23:40.390Z,5.60
2023-05-14T00:24:40.391Z,5.63
2023-05-14T00:25:40.398Z,5.74
2023-05-14T00:26:40.403Z,5.67
2023-05-14T00:27:40.415Z,5.72
2023-05-14T00:28:40.420Z,5.67
2023-05-14T00:29:40.431Z,5.64
2023-05-14T00:30:40.435Z,5.63
2023-05-14T00:31:40.460Z,5.74
2023-05-14T00:32:40.490Z,5.64
2023-05-14T00:33:40.463Z,5.60
2023-05-14T00:34:40.472Z,5.64
2023-05-14T00:35:40.479Z,5.54
2023-05-14T00:36:40.485Z,5.43
2023-05-14T00:37:40.511Z,5.36
2023-05-14T00:38:40.516Z,5.53
2023-05-14T00:39:40.512Z,5.45
2023-05-14T00:40:40.530Z,5.48
2023-05-14T00:41:40.532Z,5.56
2023-05-14T00:42:40.543Z,5.57
2023-05-14T00:43:40.550Z,5.64
2023-05-14T00:44:40.557Z,5.58
2023-05-14T00:45:40.560Z,5.76
2023-05-14T00:46:40.631Z,5.64
2023-05-14T00:47:40.609Z,5.65
2023-05-14T00:48:40.614Z,5.67
2023-05-14T00:49:40.597Z,5.71
2023-05-14T00:50:40.607Z,5.74
2023-05-14T00:51:40.630Z,5.78
2023-05-14T00:52:40.630Z,5.65
2023-05-14T00:53:40.639Z,5.65
2023-05-14T00:54:40.639Z,5.58
2023-05-14T00:55:40.651Z,5.65
2023-05-14T00:56:40.657Z,5.65
2023-05-14T00:57:40.688Z,5.51
2023-05-14T00:58:40.669Z,5.56
2023-05-14T00:59:40.695Z,5.48
2023-05-14T01:00:40.730Z,5.49
2023-05-14T01:01:40.719Z,5.35
2023-05-14T01:02:40.859Z,5.42
2023-05-14T01:03:40.784Z,5.39
2023-05-14T01:04:40.755Z,5.39
2023-05-14T01:05:40.732Z,5.53
2023-05-14T01:06:40.737Z,5.53
2023-05-14T01:07:40.754Z,5.48
2023-05-14T01:08:40.752Z,5.56
2023-05-14T01:09:40.762Z,5.54
2023-05-14T01:10:40.767Z,5.56
2023-05-14T01:11:40.782Z,5.58
2023-05-14T01:12:40.787Z,5.71
2023-05-14T01:13:40.834Z,5.72
2023-05-14T01:14:40.815Z,5.61
2023-05-14T01:15:40.815Z,5.63
2023-05-14T01:16:40.852Z,5.64
2023-05-14T01:17:40.880Z,5.63
2023-05-14T01:18:40.910Z,5.68
2023-05-14T01:19:40.848Z,5.71
2023-05-14T01:20:40.877Z,5.71
2023-05-14T01:21:40.926Z,5.64
2023-05-14T01:22:40.893Z,5.72
2023-05-14T01:23:40.884Z,5.64
2023-05-14T01:24:40.888Z,5.63
2023-05-14T01:25:40.899Z,5.68
2023-05-14T01:26:40.908Z,5.58
2023-05-14T01:27:40.914Z,5.64
2023-05-14T01:28:40.919Z,5.68
2023-05-14T01:29:40.923Z,5.65
2023-05-14T01:30:40.935Z,5.71
2023-05-14T01:31:41.065Z,5.65
2023-05-14T01:32:41.039Z,5.61
2023-05-14T01:33:40.970Z,5.67
2023-05-14T01:34:40.974Z,5.67
2023-05-14T01:35:40.988Z,5.61
2023-05-14T01:36:41.010Z,5.53
2023-05-14T01:37:40.994Z,5.53
2023-05-14T01:38:41.006Z,5.56
2023-05-14T01:39:41.012Z,5.58
2023-05-14T01:40:41.038Z,5.57
2023-05-14T01:41:41.037Z,5.61
2023-05-14T01:42:41.044Z,5.45
2023-05-14T01:43:41.046Z,5.21
2023-05-14T01:44:41.056Z,5.28
2023-05-14T01:45:41.126Z,5.25
2023-05-14T01:46:41.219Z,5.21
2023-05-14T01:47:41.109Z,5.24
2023-05-14T01:48:41.082Z,5.21
2023-05-14T01:49:41.102Z,5.24
2023-05-14T01:50:41.097Z,5.24
2023-05-14T01:51:41.125Z,5.25
2023-05-14T01:52:41.133Z,5.27
2023-05-14T01:53:41.124Z,5.25
2023-05-14T01:54:41.128Z,5.31
2023-05-14T01:55:41.144Z,5.39
2023-05-14T01:56:41.143Z,5.31
2023-05-14T01:57:41.153Z,5.39
2023-05-14T01:58:41.160Z,5.43
2023-05-14T01:59:41.172Z,5.46
2023-05-14T02:00:41.186Z,5.39
2023-05-14T02:01:41.417Z,5.40
2023-05-14T02:02:41.233Z,5.30
2023-05-14T02:03:41.244Z,5.27
2023-05-14T02:04:41.212Z,5.25
2023-05-14T02:05:41.228Z,5.20
2023-05-14T02:06:41.227Z,5.25
2023-05-14T02:07:41.239Z,5.24
2023-05-14T02:08:41.258Z,5.15
2023-05-14T02:09:41.256Z,5.17
2023-05-14T02:10:41.254Z,5.22
2023-05-14T02:11:41.269Z,5.28
2023-05-14T02:12:41.276Z,5.25
2023-05-14T02:13:41.289Z,5.20
2023-05-14T02:14:41.290Z,5.09
2023-05-14T02:15:41.353Z,5.02
2023-05-14T02:16:41.304Z,4.96
2023-05-14T02:17:41.330Z,5.00
2023-05-14T02:18:41.342Z,4.96
2023-05-14T02:19:41.332Z,4.92
2023-05-14T02:20:41.338Z,4.85
2023-05-14T02:21:41.351Z,4.94
2023-05-14T02:22:41.356Z,4.97
2023-05-14T02:23:42.173Z,4.97
2023-05-14T02:24:41.396Z,5.04
2023-05-14T02:25:41.383Z,5.03
2023-05-14T02:26:41.388Z,5.12
2023-05-14T02:27:41.447Z,5.15
2023-05-14T02:28:41.400Z,5.24
2023-05-14T02:29:41.413Z,5.27
2023-05-14T02:30:41.417Z,5.30
2023-05-14T02:31:41.458Z,5.28
2023-05-14T02:32:41.576Z,5.28
2023-05-14T02:33:41.463Z,5.27
2023-05-14T02:34:41.466Z,5.28
2023-05-14T02:35:41.461Z,5.17
2023-05-14T02:36:41.463Z,5.15
2023-05-14T02:37:41.479Z,5.07
2023-05-14T02:38:41.480Z,5.13
2023-05-14T02:39:41.491Z,5.15
2023-05-14T02:40:41.519Z,5.06
2023-05-14T02:41:41.506Z,5.06
2023-05-14T02:42:41.517Z,5.03
2023-05-14T02:43:41.530Z,5.03
2023-05-14T02:44:41.531Z,4.92
2023-05-14T02:45:41.542Z,5.00
2023-05-14T02:46:41.584Z,4.97
2023-05-14T02:47:41.590Z,4.91
2023-05-14T02:48:41.564Z,4.91
2023-05-14T02:49:41.570Z,4.96
2023-05-14T02:50:41.576Z,5.04
2023-05-14T02:51:41.586Z,5.04
2023-05-14T02:52:41.591Z,5.02
2023-05-14T02:53:41.602Z,5.09
2023-05-14T02:54:41.610Z,5.07
2023-05-14T02:55:41.618Z,5.20
2023-05-14T02:56:41.646Z,5.22
2023-05-14T02:57:41.631Z,5.21
2023-05-14T02:58:41.638Z,5.30
2023-05-14T02:59:41.652Z,5.15
2023-05-14T03:00:41.681Z,5.10
2023-05-14T03:01:41.663Z,5.07
2023-05-14T03:02:41.862Z,5.02
2023-05-14T03:03:41.701Z,5.03
2023-05-14T03:04:41.692Z,5.00
2023-05-14T03:05:41.702Z,4.78
2023-05-14T03:06:41.703Z,4.85
2023-05-14T03:07:41.713Z,4.86
2023-05-14T03:08:41.736Z,4.82
2023-05-14T03:09:41.738Z,4.72
2023-05-14T03:10:41.733Z,4.65
2023-05-14T03:11:41.747Z,4.65
2023-05-14T03:12:41.773Z,4.65
2023-05-14T03:13:41.757Z,4.67
2023-05-14T03:14:41.773Z,4.69
2023-05-14T03:15:41.780Z,4.70
2023-05-14T03:16:41.812Z,4.69
2023-05-14T03:17:41.822Z,4.62
2023-05-14T03:18:41.828Z,4.63
2023-05-14T03:19:41.803Z,4.72
2023-05-14T03:20:41.811Z,4.67
2023-05-14T03:21:41.821Z,4.72
2023-05-14T03:22:41.820Z,4.73
2023-05-14T03:23:41.835Z,4.72
2023-05-14T03:24:41.838Z,4.80
2023-05-14T03:25:41.847Z,4.85
2023-05-14T03:26:41.854Z,4.85
2023-05-14T03:27:41.868Z,4.91
2023-05-14T03:28:41.898Z,4.86
2023-05-14T03:29:41.875Z,4.94
2023-05-14T03:30:41.899Z,4.89
2023-05-14T03:31:41.910Z,4.85
2023-05-14T03:32:41.953Z,4.92
2023-05-14T03:33:41.908Z,4.92
2023-05-14T03:34:41.932Z,4.99
2023-05-14T03:35:41.926Z,4.96
2023-05-14T03:36:41.941Z,5.00
2023-05-14T03:37:41.939Z,4.99
2023-05-14T03:38:41.952Z,5.07
2023-05-14T03:39:41.973Z,5.12
2023-05-14T03:40:41.963Z,5.07
2023-05-14T03:41:41.966Z,5.13
2023-05-14T03:42:41.994Z,5.13
2023-05-14T03:43:42.009Z,5.22
2023-05-14T03:44:42.025Z,5.20
2023-05-14T03:45:42.017Z,5.18
2023-05-14T03:46:42.034Z,5.21
2023-05-14T03:47:42.034Z,5.25
2023-05-14T03:48:42.069Z,5.20
2023-05-14T03:49:42.037Z,5.22
2023-05-14T03:50:42.042Z,5.31
2023-05-14T03:51:42.068Z,5.31
2023-05-14T03:52:42.106Z,5.33
2023-05-14T03:53:42.059Z,5.36
2023-05-14T03:54:42.072Z,5.36
2023-05-14T03:55:42.076Z,5.28
2023-05-14T03:56:42.101Z,5.38
2023-05-14T03:57:42.092Z,5.36
2023-05-14T03:58:42.103Z,5.36
2023-05-14T03:59:42.108Z,5.42
2023-05-14T04:00:42.174Z,5.38
2023-05-14T04:01:42.130Z,5.38
2023-05-14T04:02:42.243Z,5.40
2023-05-14T04:03:42.366Z,5.40
2023-05-14T04:04:42.193Z,5.40
2023-05-14T04:05:42.154Z,5.43
2023-05-14T04:06:42.175Z,5.46
2023-05-14T04:07:42.175Z,5.35
2023-05-14T04:08:42.181Z,5.40
2023-05-14T04:09:42.185Z,5.43
2023-05-14T04:10:42.204Z,5.40
2023-05-14T04:11:42.202Z,5.51
2023-05-14T04:12:42.230Z,5.45
2023-05-14T04:13:42.218Z,5.49
2023-05-14T04:14:42.232Z,5.42
2023-05-14T04:15:42.240Z,5.43
2023-05-14T04:16:42.467Z,5.33
2023-05-14T04:17:42.264Z,5.18
2023-05-14T04:18:42.292Z,5.00
2023-05-14T04:19:42.265Z,4.94
2023-05-14T04:20:42.283Z,4.91
2023-05-14T04:21:42.298Z,4.78
2023-05-14T04:22:42.303Z,4.66
2023-05-14T04:23:42.303Z,4.70
2023-05-14T04:24:42.311Z,4.80
2023-05-14T04:25:42.315Z,4.78
2023-05-14T04:26:42.327Z,4.80
2023-05-14T04:27:42.332Z,4.75
2023-05-14T04:28:42.339Z,4.82
2023-05-14T04:29:42.345Z,4.82
2023-05-14T04:30:42.367Z,4.70
2023-05-14T04:31:42.397Z,4.67
2023-05-14T04:32:42.426Z,4.67
2023-05-14T04:33:42.380Z,4.63
2023-05-14T04:34:42.385Z,4.66
2023-05-14T04:35:42.393Z,4.75
2023-05-14T04:36:42.410Z,4.75
2023-05-14T04:37:42.401Z,4.67
2023-05-14T04:38:42.415Z,4.69
2023-05-14T04:39:42.416Z,4.69
2023-05-14T04:40:42.441Z,4.65
2023-05-14T04:41:42.456Z,4.80
2023-05-14T04:42:42.442Z,4.69
2023-05-14T04:43:42.456Z,4.78
2023-05-14T04:44:42.460Z,4.80
2023-05-14T04:45:42.475Z,4.89
2023-05-14T04:46:42.475Z,4.85
2023-05-14T04:47:42.557Z,4.80
2023-05-14T04:48:42.507Z,4.67
2023-05-14T04:49:42.492Z,4.70
2023-05-14T04:50:42.503Z,4.63
2023-05-14T04:51:42.508Z,4.73
2023-05-14T04:52:42.520Z,4.72
2023-05-14T04:53:42.543Z,4.77
2023-05-14T04:54:42.581Z,4.72
2023-05-14T04:55:42.546Z,4.69
2023-05-14T04:56:42.548Z,4.58
2023-05-14T04:57:42.554Z,4.70
2023-05-14T04:58:42.558Z,4.66
2023-05-14T04:59:42.577Z,4.60
2023-05-14T05:00:42.591Z,4.59
2023-05-14T05:01:42.656Z,4.52
2023-05-14T05:02:42.610Z,4.50
2023-05-14T05:03:42.631Z,4.48
2023-05-14T05:04:42.633Z,4.45
2023-05-14T05:05:42.623Z,4.37
2023-05-14T05:06:42.624Z,4.33
2023-05-14T05:07:42.631Z,4.37
2023-05-14T05:08:42.642Z,4.37
2023-05-14T05:09:42.645Z,4.45
2023-05-14T05:10:42.662Z,4.50
2023-05-14T05:11:42.661Z,4.50
2023-05-14T05:12:42.675Z,4.51
2023-05-14T05:13:42.688Z,4.51
2023-05-14T05:14:42.690Z,4.44
2023-05-14T05:15:42.718Z,4.47
2023-05-14T05:16:42.722Z,4.34
2023-05-14T05:17:42.732Z,4.36
2023-05-14T05:18:42.773Z,4.45
2023-05-14T05:19:44.434Z,4.47
2023-05-14T05:20:42.760Z,4.41
2023-05-14T05:21:42.744Z,4.41
2023-05-14T05:22:42.745Z,4.51
2023-05-14T05:23:42.751Z,4.47
2023-05-14T05:24:42.776Z,4.40
2023-05-14T05:25:42.766Z,4.41
2023-05-14T05:26:42.779Z,4.37
2023-05-14T05:27:42.784Z,4.32
2023-05-14T05:28:42.796Z,4.34
2023-05-14T05:29:42.792Z,4.36
2023-05-14T05:30:42.806Z,4.34
2023-05-14T05:31:42.879Z,4.42
2023-05-14T05:32:42.847Z,4.36
2023-05-14T05:33:42.826Z,4.36
2023-05-14T05:34:42.830Z,4.32
2023-05-14T05:35:42.837Z,4.40
2023-05-14T05:36:42.867Z,4.27
2023-05-14T05:37:42.851Z,4.29
2023-05-14T05:38:42.862Z,4.34
2023-05-14T05:39:42.864Z,4.33
2023-05-14T05:40:42.877Z,4.32
2023-05-14T05:41:42.876Z,4.34
2023-05-14T05:42:42.888Z,4.24
2023-05-14T05:43:42.914Z,4.26
2023-05-14T05:44:42.950Z,4.26
2023-05-14T05:45:42.915Z,4.26
2023-05-14T05:46:42.997Z,4.27
2023-05-14T05:47:42.966Z,4.24
2023-05-14T05:48:42.946Z,4.27
2023-05-14T05:49:42.934Z,4.22
2023-05-14T05:50:42.951Z,4.30
2023-05-14T05:51:42.946Z,4.18
2023-05-14T05:52:42.995Z,4.22
2023-05-14T05:53:42.963Z,4.24
2023-05-14T05:54:42.988Z,4.29
2023-05-14T05:55:42.979Z,4.20
2023-05-14T05:56:42.985Z,4.27
2023-05-14T05:57:42.988Z,4.26
2023-05-14T05:58:43.007Z,4.24
2023-05-14T05:59:43.013Z,4.26
2023-05-14T06:00:43.012Z,4.29
2023-05-14T06:01:43.028Z,4.29
2023-05-14T06:02:43.130Z,4.34
2023-05-14T06:03:43.037Z,4.26
2023-05-14T06:04:43.039Z,4.23
2023-05-14T06:05:43.076Z,4.26
2023-05-14T06:06:43.055Z,4.26
2023-05-14T06:07:43.065Z,4.26
2023-05-14T06:08:43.088Z,4.27
2023-05-14T06:09:43.078Z,4.27
2023-05-14T06:10:43.093Z,4.41
2023-05-14T06:11:43.083Z,4.41
2023-05-14T06:12:43.094Z,4.40
2023-05-14T06:13:43.096Z,4.40
2023-05-14T06:14:43.116Z,4.44
2023-05-14T06:15:43.122Z,4.42
2023-05-14T06:16:43.156Z,4.48
2023-05-14T06:17:43.158Z,4.42
2023-05-14T06:18:43.174Z,4.42
2023-05-14T06:19:43.150Z,4.50
2023-05-14T06:20:43.156Z,4.42
2023-05-14T06:21:43.158Z,4.52
2023-05-14T06:22:43.170Z,4.58
2023-05-14T06:23:43.167Z,4.60
2023-05-14T06:24:43.202Z,4.63
2023-05-14T06:25:43.198Z,4.67
2023-05-14T06:26:43.188Z,4.63
2023-05-14T06:27:43.206Z,4.41
2023-05-14T06:28:43.208Z,4.36
2023-05-14T06:29:43.219Z,4.41
2023-05-14T06:30:43.227Z,4.40
2023-05-14T06:31:43.243Z,4.45
2023-05-14T06:32:43.304Z,4.52
2023-05-14T06:33:43.243Z,4.54
2023-05-14T06:34:43.250Z,4.62
2023-05-14T06:35:43.277Z,4.73
2023-05-14T06:36:43.281Z,4.67
2023-05-14T06:37:43.264Z,4.69
2023-05-14T06:38:43.294Z,4.77
2023-05-14T06:39:43.277Z,4.85
2023-05-14T06:40:43.309Z,4.82
2023-05-14T06:41:43.316Z,4.82
2023-05-14T06:42:43.314Z,4.80
2023-05-14T06:43:43.314Z,4.72
2023-05-14T06:44:43.324Z,4.77
2023-05-14T06:45:43.327Z,4.86
2023-05-14T06:46:43.347Z,4.85
2023-05-14T06:47:43.386Z,4.75
2023-05-14T06:48:43.407Z,4.85
2023-05-14T06:49:43.351Z,4.88
2023-05-14T06:50:43.357Z,4.99
2023-05-14T06:51:43.376Z,5.04
2023-05-14T06:52:43.375Z,5.09
2023-05-14T06:53:43.377Z,5.02
2023-05-14T06:54:43.400Z,5.09
2023-05-14T06:55:43.412Z,5.03
2023-05-14T06:56:43.427Z,5.13
2023-05-14T06:57:43.412Z,5.22
2023-05-14T06:58:43.424Z,5.18
2023-05-14T06:59:43.432Z,5.36
2023-05-14T07:00:43.437Z,5.36
2023-05-14T07:01:43.504Z,5.38
2023-05-14T07:02:43.535Z,5.31
2023-05-14T07:03:43.466Z,5.21
2023-05-14T07:04:43.600Z,5.25
2023-05-14T07:05:43.469Z,5.31
2023-05-14T07:06:43.486Z,5.27
2023-05-14T07:07:43.491Z,5.38
2023-05-14T07:08:43.498Z,5.28
2023-05-14T07:09:43.508Z,5.38
2023-05-14T07:10:43.509Z,5.51
2023-05-14T07:11:43.519Z,5.49
2023-05-14T07:12:43.544Z,5.51
2023-05-14T07:13:43.550Z,5.54
2023-05-14T07:14:43.546Z,5.61
2023-05-14T07:15:43.544Z,5.57
2023-05-14T07:16:43.562Z,5.57
2023-05-14T07:17:43.576Z,5.67
2023-05-14T07:18:43.602Z,5.75
2023-05-14T07:19:43.575Z,5.82
2023-05-14T07:20:43.584Z,5.83
2023-05-14T07:21:43.594Z,5.85
2023-05-14T07:22:43.605Z,5.91
2023-05-14T07:23:43.605Z,5.94
2023-05-14T07:24:43.645Z,5.86
2023-05-14T07:25:43.622Z,5.79
2023-05-14T07:26:43.629Z,5.68
2023-05-14T07:27:43.637Z,5.71
2023-05-14T07:28:43.672Z,5.71
2023-05-14T07:29:43.662Z,5.67
2023-05-14T07:30:43.668Z,5.72
2023-05-14T07:31:43.829Z,5.63
2023-05-14T07:32:43.706Z,5.61
2023-05-14T07:33:43.684Z,5.57
2023-05-14T07:34:43.695Z,5.56
2023-05-14T07:35:43.710Z,5.40
2023-05-14T07:36:43.740Z,5.27
2023-05-14T07:37:43.717Z,5.13
2023-05-14T07:38:43.729Z,5.13
2023-05-14T07:39:43.734Z,5.04
2023-05-14T07:40:43.765Z,5.22
2023-05-14T07:41:43.744Z,5.33
2023-05-14T07:42:43.762Z,5.39
2023-05-14T07:43:43.764Z,5.51
2023-05-14T07:44:43.790Z,5.56
2023-05-14T07:45:43.799Z,5.65
2023-05-14T07:46:43.831Z,5.71
2023-05-14T07:47:43.852Z,5.68
2023-05-14T07:48:43.817Z,5.58
2023-05-14T07:49:43.811Z,5.48
2023-05-14T07:50:43.818Z,5.46
2023-05-14T07:51:43.830Z,5.57
2023-05-14T07:52:43.832Z,5.65
2023-05-14T07:53:43.840Z,5.74
2023-05-14T07:54:43.849Z,5.82
2023-05-14T07:55:43.861Z,5.81
2023-05-14T07:56:43.870Z,5.86
2023-05-14T07:57:43.875Z,5.71
2023-05-14T07:58:43.878Z,5.81
2023-05-14T07:59:43.889Z,5.81
2023-05-14T08:00:43.916Z,5.89
2023-05-14T08:01:43.925Z,5.90
2023-05-14T08:02:44.239Z,5.94
2023-05-14T08:03:43.991Z,6.03
2023-05-14T08:04:43.925Z,5.96
2023-05-14T08:05:43.936Z,5.89
2023-05-14T08:06:43.940Z,5.97
2023-05-14T08:07:43.953Z,5.91
2023-05-14T08:08:43.957Z,5.96
2023-05-14T08:09:43.965Z,5.90
2023-05-14T08:10:44.018Z,6.06
2023-05-14T08:11:44.000Z,6.11
2023-05-14T08:12:43.991Z,6.25
2023-05-14T08:13:44.001Z,6.33
2023-05-14T08:14:44.011Z,6.43
2023-05-14T08:15:44.023Z,6.40
2023-05-14T08:16:44.038Z,6.19
2023-05-14T08:17:44.067Z,6.18
2023-05-14T08:18:44.080Z,6.25
2023-05-14T08:19:44.049Z,6.18
2023-05-14T08:20:44.058Z,6.09
2023-05-14T08:21:44.066Z,6.08
2023-05-14T08:22:44.072Z,6.21
2023-05-14T08:23:44.084Z,6.18
2023-05-14T08:24:44.104Z,6.00
2023-05-14T08:25:44.098Z,6.01
2023-05-14T08:26:44.106Z,5.85
2023-05-14T08:27:44.116Z,5.82
2023-05-14T08:28:44.118Z,5.97
2023-05-14T08:29:44.148Z,5.79
2023-05-14T08:30:44.173Z,5.76
2023-05-14T08:31:44.259Z,5.85
2023-05-14T08:32:44.197Z,5.79
2023-05-14T08:33:44.184Z,5.81
2023-05-14T08:34:44.259Z,5.64
2023-05-14T08:35:44.184Z,5.57
2023-05-14T08:36:44.192Z,5.71
2023-05-14T08:37:44.202Z,5.91
2023-05-14T08:38:44.225Z,5.94
2023-05-14T08:39:44.227Z,6.11
2023-05-14T08:40:44.218Z,6.03
2023-05-14T08:41:44.229Z,6.00
2023-05-14T08:42:44.235Z,6.18
2023-05-14T08:43:44.243Z,6.30
2023-05-14T08:44:44.271Z,6.17
2023-05-14T08:45:44.260Z,6.21
2023-05-14T08:46:44.263Z,6.36
2023-05-14T08:47:44.329Z,6.81
2023-05-14T08:48:44.365Z,6.94
2023-05-14T08:49:44.289Z,6.95
2023-05-14T08:50:44.292Z,6.92
2023-05-14T08:51:44.303Z,6.79
2023-05-14T08:52:44.313Z,6.76
2023-05-14T08:53:44.322Z,6.81
2023-05-14T08:54:44.326Z,6.76
2023-05-14T08:55:44.338Z,6.79
2023-05-14T08:56:44.342Z,6.59
2023-05-14T08:57:44.357Z,6.51
2023-05-14T08:58:44.357Z,6.25
2023-05-14T08:59:44.369Z,6.25
2023-05-14T09:00:44.374Z,6.41
2023-05-14T09:01:44.462Z,6.64
2023-05-14T09:02:44.499Z,6.73
2023-05-14T09:03:44.463Z,6.81
2023-05-14T09:04:44.433Z,6.73
2023-05-14T09:05:44.416Z,6.77
2023-05-14T09:06:44.421Z,6.94
2023-05-14T09:07:44.442Z,6.94
2023-05-14T09:08:44.454Z,6.67
2023-05-14T09:09:44.465Z,6.44
2023-05-14T09:10:44.467Z,6.52
2023-05-14T09:11:44.466Z,6.46
2023-05-14T09:12:44.475Z,6.40
2023-05-14T09:13:44.483Z,6.34
2023-05-14T09:14:44.486Z,6.37
2023-05-14T09:15:44.506Z,6.43
2023-05-14T09:16:44.617Z,6.51
2023-05-14T09:17:44.571Z,6.22
2023-05-14T09:18:44.571Z,6.09
2023-05-14T09:19:44.535Z,6.08
2023-05-14T09:20:44.557Z,5.93
2023-05-14T09:21:44.562Z,5.89
2023-05-14T09:22:44.569Z,5.79
2023-05-14T09:23:44.564Z,5.78
2023-05-14T09:24:44.584Z,5.89
2023-05-14T09:25:44.581Z,5.93
2023-05-14T09:26:44.585Z,6.11
2023-05-14T09:27:44.598Z,6.22
2023-05-14T09:28:44.601Z,6.36
2023-05-14T09:29:44.613Z,6.22
2023-05-14T09:30:44.617Z,6.08
2023-05-14T09:31:44.658Z,6.09
2023-05-14T09:32:44.698Z,5.99
2023-05-14T09:33:44.643Z,6.15
2023-05-14T09:34:44.652Z,6.34
2023-05-14T09:35:44.663Z,6.46
2023-05-14T09:36:44.690Z,6.43
2023-05-14T09:37:44.687Z,6.62
2023-05-14T09:38:44.713Z,6.76
2023-05-14T09:39:44.690Z,6.97
2023-05-14T09:40:44.698Z,7.05
2023-05-14T09:41:44.708Z,6.97
2023-05-14T09:42:44.710Z,6.91
2023-05-14T09:43:44.721Z,6.97
2023-05-14T09:44:44.727Z,7.07
2023-05-14T09:45:44.746Z,7.35
2023-05-14T09:46:44.744Z,7.45
2023-05-14T09:47:44.886Z,7.40
2023-05-14T09:48:44.868Z,7.34
2023-05-14T09:49:44.778Z,7.32
2023-05-14T09:50:44.777Z,7.27
2023-05-14T09:51:44.801Z,7.30
2023-05-14T09:52:44.848Z,7.43
2023-05-14T09:53:44.816Z,7.58
2023-05-14T09:54:44.932Z,7.35
2023-05-14T09:55:44.820Z,7.28
2023-05-14T09:56:44.854Z,7.12
2023-05-14T09:57:44.854Z,7.23
2023-05-14T09:58:44.861Z,7.46
2023-05-14T09:59:44.950Z,7.55
2023-05-14T10:00:44.924Z,7.48
2023-05-14T10:01:44.971Z,7.60
2023-05-14T10:02:44.904Z,7.77
2023-05-14T10:03:44.895Z,7.82
2023-05-14T10:04:44.975Z,8.04
2023-05-14T10:05:44.909Z,8.10
2023-05-14T10:06:44.924Z,8.00
2023-05-14T10:07:44.924Z,7.52
2023-05-14T10:08:44.956Z,7.20
2023-05-14T10:09:44.944Z,6.81
2023-05-14T10:10:44.953Z,6.97
2023-05-14T10:11:44.982Z,7.24
2023-05-14T10:12:44.979Z,7.42
2023-05-14T10:13:44.998Z,7.72
2023-05-14T10:14:44.985Z,7.80
2023-05-14T10:15:44.999Z,8.02
2023-05-14T10:16:45.110Z,7.90
2023-05-14T10:17:45.062Z,7.74
2023-05-14T10:18:45.048Z,7.61
2023-05-14T10:19:45.033Z,7.32
2023-05-14T10:20:45.041Z,7.27
2023-05-14T10:21:45.048Z,7.35
2023-05-14T10:22:45.079Z,7.10
2023-05-14T10:23:45.065Z,7.02
2023-05-14T10:24:45.092Z,6.74
2023-05-14T10:25:45.088Z,6.64
2023-05-14T10:26:45.096Z,6.80
2023-05-14T10:27:45.125Z,6.73
2023-05-14T10:28:45.115Z,6.84
2023-05-14T10:29:45.123Z,6.95
2023-05-14T10:30:45.124Z,6.99
2023-05-14T10:31:45.266Z,7.10
2023-05-14T10:32:45.182Z,7.24
2023-05-14T10:33:45.151Z,7.37
2023-05-14T10:34:45.156Z,7.43
2023-05-14T10:35:45.174Z,7.58
2023-05-14T10:36:45.178Z,7.53
2023-05-14T10:37:45.194Z,7.55
2023-05-14T10:38:45.197Z,7.64
2023-05-14T10:39:45.218Z,7.72
2023-05-14T10:40:45.233Z,8.04
2023-05-14T10:41:45.226Z,8.30
2023-05-14T10:42:45.236Z,8.71
2023-05-14T10:43:45.241Z,8.87
2023-05-14T10:44:45.250Z,8.73
2023-05-14T10:45:45.260Z,8.96
2023-05-14T10:46:45.292Z,8.73
2023-05-14T10:47:45.296Z,8.74
2023-05-14T10:48:45.286Z,8.92
2023-05-14T10:49:45.327Z,8.98
2023-05-14T10:50:45.317Z,8.83
2023-05-14T10:51:45.390Z,9.18
2023-05-14T10:52:45.322Z,9.86
2023-05-14T10:53:45.330Z,9.74
2023-05-14T10:54:45.341Z,10.02
2023-05-14T10:55:45.367Z,9.86
2023-05-14T10:56:45.383Z,9.84
2023-05-14T10:57:45.410Z,9.96
2023-05-14T10:58:45.376Z,9.78
2023-05-14T10:59:45.388Z,9.42
2023-05-14T11:00:45.398Z,8.38
2023-05-14T11:01:45.467Z,8.28
2023-05-14T11:02:45.470Z,8.38
2023-05-14T11:03:45.615Z,8.18
2023-05-14T11:04:45.438Z,8.11
2023-05-14T11:05:45.452Z,8.26
2023-05-14T11:06:45.457Z,8.52
2023-05-14T11:07:45.465Z,8.50
2023-05-14T11:08:45.477Z,8.30
2023-05-14T11:09:45.491Z,8.34
2023-05-14T11:10:45.495Z,8.36
2023-05-14T11:11:45.515Z,8.66
2023-05-14T11:12:45.539Z,8.74
2023-05-14T11:13:45.533Z,9.23
2023-05-14T11:14:45.534Z,9.36
2023-05-14T11:15:45.548Z,9.38
2023-05-14T11:16:45.610Z,9.50
2023-05-14T11:17:45.613Z,9.26
2023-05-14T11:18:45.632Z,9.04
2023-05-14T11:19:45.587Z,8.96
2023-05-14T11:20:45.598Z,8.96
2023-05-14T11:21:45.684Z,8.70
2023-05-14T11:22:45.613Z,8.33
2023-05-14T11:23:45.631Z,8.76
2023-05-14T11:24:45.633Z,9.24
2023-05-14T11:25:45.699Z,9.53
2023-05-14T11:26:45.652Z,9.87
2023-05-14T11:27:45.692Z,10.07
2023-05-14T11:28:45.698Z,10.11
2023-05-14T11:29:45.687Z,10.18
2023-05-14T11:30:45.693Z,9.96
2023-05-14T11:31:45.793Z,10.27
2023-05-14T11:32:45.793Z,10.33
2023-05-14T11:33:45.728Z,9.97
2023-05-14T11:34:45.731Z,10.36
2023-05-14T11:35:45.750Z,10.48
2023-05-14T11:36:45.752Z,10.94
2023-05-14T11:37:45.766Z,10.74
2023-05-14T11:38:45.777Z,10.52
2023-05-14T11:39:45.791Z,10.36
2023-05-14T11:40:45.793Z,10.30
2023-05-14T11:41:45.824Z,10.27
2023-05-14T11:42:45.868Z,10.41
2023-05-14T11:43:45.865Z,10.84
2023-05-14T11:44:45.862Z,10.91
2023-05-14T11:45:45.870Z,10.53
2023-05-14T11:46:45.856Z,10.45
2023-05-14T11:47:45.939Z,10.60
2023-05-14T11:48:45.885Z,10.74
2023-05-14T11:49:45.904Z,10.30
2023-05-14T11:50:45.936Z,9.61
2023-05-14T11:51:45.919Z,9.87
2023-05-14T11:52:45.921Z,9.56
2023-05-14T11:53:45.953Z,9.83
2023-05-14T11:54:45.947Z,9.84
2023-05-14T11:55:45.954Z,10.26
2023-05-14T11:56:45.963Z,10.42
2023-05-14T11:57:46.002Z,10.38
2023-05-14T11:58:45.982Z,10.36
2023-05-14T11:59:45.992Z,9.90
2023-05-14T12:00:46.038Z,9.71
2023-05-14T12:01:46.015Z,9.94
2023-05-14T12:02:46.073Z,9.87
2023-05-14T12:03:46.161Z,9.65
2023-05-14T12:04:46.145Z,9.84
2023-05-14T12:05:46.077Z,9.87
2023-05-14T12:06:46.068Z,9.61
2023-05-14T12:07:46.076Z,9.78
2023-05-14T12:08:46.088Z,9.90
2023-05-14T12:09:46.105Z,10.01
2023-05-14T12:10:46.117Z,10.17
2023-05-14T12:11:46.129Z,10.48
2023-05-14T12:12:46.129Z,10.56
2023-05-14T12:13:46.141Z,10.97
2023-05-14T12:14:46.154Z,11.42
2023-05-14T12:15:46.198Z,11.79
2023-05-14T12:16:46.429Z,11.72
2023-05-14T12:17:46.221Z,11.47
2023-05-14T12:18:46.205Z,11.15
2023-05-14T12:19:46.204Z,10.41
2023-05-14T12:20:46.232Z,10.55
2023-05-14T12:21:46.230Z,10.23
2023-05-14T12:22:46.260Z,10.22
2023-05-14T12:23:46.257Z,10.25
2023-05-14T12:24:46.264Z,10.22
2023-05-14T12:25:46.269Z,10.33
2023-05-14T12:26:46.295Z,10.33
2023-05-14T12:27:46.300Z,10.44
2023-05-14T12:28:46.323Z,10.48
2023-05-14T12:29:46.319Z,10.64
2023-05-14T12:30:46.339Z,10.67
2023-05-14T12:31:46.431Z,10.88
2023-05-14T12:32:46.478Z,11.06
2023-05-14T12:33:46.361Z,11.47
2023-05-14T12:34:46.382Z,11.82
2023-05-14T12:35:46.385Z,11.70
2023-05-14T12:36:46.405Z,12.14
2023-05-14T12:37:46.421Z,12.37
2023-05-14T12:38:46.418Z,12.16
2023-05-14T12:39:46.435Z,11.75
2023-05-14T12:40:46.446Z,11.43
2023-05-14T12:41:46.462Z,10.73
2023-05-14T12:42:46.470Z,10.91
2023-05-14T12:43:46.480Z,11.25
2023-05-14T12:44:46.494Z,11.21
2023-05-14T12:45:46.502Z,11.37
2023-05-14T12:46:46.583Z,11.60
2023-05-14T12:47:46.555Z,11.51
2023-05-14T12:48:46.573Z,11.88
2023-05-14T12:49:46.556Z,12.16
2023-05-14T12:50:46.582Z,12.53
2023-05-14T12:51:46.588Z,12.19
2023-05-14T12:52:46.621Z,11.76
2023-05-14T12:53:46.596Z,11.72
2023-05-14T12:54:46.629Z,11.95
2023-05-14T12:55:46.673Z,11.94
2023-05-14T12:56:46.649Z,11.91
2023-05-14T12:57:46.653Z,12.07
2023-05-14T12:58:46.680Z,12.52
2023-05-14T12:59:46.672Z,12.09
2023-05-14T13:00:46.721Z,11.70
2023-05-14T13:01:46.696Z,11.73
2023-05-14T13:02:46.722Z,11.82
2023-05-14T13:03:46.733Z,11.86
2023-05-14T13:04:46.883Z,11.73
2023-05-14T13:05:46.748Z,11.11
2023-05-14T13:06:46.773Z,11.18
2023-05-14T13:07:46.768Z,11.52
2023-05-14T13:08:46.785Z,11.61
2023-05-14T13:09:46.796Z,11.15
2023-05-14T13:10:46.806Z,11.60
2023-05-14T13:11:46.821Z,11.28
2023-05-14T13:12:46.827Z,11.17
2023-05-14T13:13:46.835Z,11.54
2023-05-14T13:14:46.853Z,11.91
2023-05-14T13:15:46.861Z,12.28